Time;durP1;ratioP1;P1;durP2;ratioP2;P2;SDS_P1;SDS_P2;PMS_P1;PMS_P2;Temp;Humidity;BMP_temperature;BMP_pressure;BME280_temperature;BME280_humidity;BME280_pressure;Samples;Min_cycle;Max_cycle;Signal;HPM_P1;HPM_P2
2023/08/31 00:02:25;;;;;;;;;;;19.10;81.30;;;;;;5089694;28;21206;-83
2023/08/31 00:04:52;;;;;;;;;;;19.00;81.30;;;;;;5082257;28;20012;-82
2023/08/31 00:07:20;;;;;;;;;;;19.00;81.40;;;;;;5080769;28;19995;-83
2023/08/31 00:09:46;;;;;;;;;;;19.00;81.40;;;;;;5084817;28;20446;-82
2023/08/31 00:12:13;;;;;;;;;;;19.00;81.40;;;;;;5084137;28;19978;-80
2023/08/31 00:14:39;;;;;;;;;;;18.90;81.50;;;;;;5085646;28;19971;-82
2023/08/31 00:17:06;;;;;;;;;;;18.90;81.60;;;;;;5085869;28;20002;-83
2023/08/31 00:19:32;;;;;;;;;;;18.90;81.60;;;;;;5090187;28;19979;-83
2023/08/31 00:21:59;;;;;;;;;;;18.90;81.60;;;;;;5085100;28;20018;-82
2023/08/31 00:24:31;;;;;;;;;;;18.90;81.70;;;;;;5084696;28;19980;-85
2023/08/31 00:26:58;;;;;;;;;;;18.80;81.80;;;;;;5087761;28;19987;-83
2023/08/31 00:29:25;;;;;;;;;;;18.80;81.80;;;;;;5083503;28;19975;-85
2023/08/31 00:31:53;;;;;;;;;;;18.80;81.90;;;;;;5089489;28;20060;-84
2023/08/31 00:34:19;;;;;;;;;;;18.80;82.00;;;;;;5095710;28;20028;-82
2023/08/31 00:36:46;;;;;;;;;;;18.80;82.00;;;;;;5087289;28;19987;-82
2023/08/31 00:39:12;;;;;;;;;;;18.70;82.10;;;;;;5090945;28;19979;-83
2023/08/31 00:41:40;;;;;;;;;;;18.70;82.20;;;;;;5084063;28;19976;-85
2023/08/31 00:44:07;;;;;;;;;;;18.70;82.30;;;;;;5091334;28;20450;-83
2023/08/31 00:46:35;;;;;;;;;;;18.60;82.30;;;;;;5087437;28;20461;-84
2023/08/31 00:49:03;;;;;;;;;;;18.60;82.40;;;;;;5083698;28;20017;-83
2023/08/31 00:51:30;;;;;;;;;;;18.70;82.50;;;;;;5084610;28;20040;-82
2023/08/31 00:53:58;;;;;;;;;;;18.60;82.60;;;;;;5090443;28;20037;-82
2023/08/31 00:56:25;;;;;;;;;;;18.60;82.70;;;;;;5087773;28;20001;-82
2023/08/31 00:58:54;;;;;;;;;;;18.60;82.70;;;;;;5089061;28;19998;-83
2023/08/31 01:01:25;;;;;;;;;;;18.60;82.70;;;;;;5087501;28;19998;-84
2023/08/31 01:03:56;;;;;;;;;;;18.50;82.80;;;;;;5092026;28;20431;-82
2023/08/31 01:06:27;;;;;;;;;;;18.50;82.80;;;;;;5092978;28;20346;-83
2023/08/31 01:08:57;;;;;;;;;;;18.50;82.90;;;;;;5089208;28;19979;-83
2023/08/31 01:11:31;;;;;;;;;;;18.50;83.00;;;;;;5090318;28;19975;-84
2023/08/31 01:14:03;;;;;;;;;;;18.50;83.00;;;;;;5085496;28;19981;-82
2023/08/31 01:16:30;;;;;;;;;;;18.40;82.90;;;;;;5081288;28;19995;-83
2023/08/31 01:18:57;;;;;;;;;;;18.40;83.00;;;;;;5083764;28;19991;-82
2023/08/31 01:21:25;;;;;;;;;;;18.40;83.10;;;;;;5088048;28;20330;-83
2023/08/31 01:23:54;;;;;;;;;;;18.40;83.10;;;;;;5083397;28;20038;-83
2023/08/31 01:26:21;;;;;;;;;;;18.40;83.20;;;;;;5088168;28;20003;-83
2023/08/31 01:28:47;;;;;;;;;;;18.30;83.20;;;;;;5084898;28;19975;-82
2023/08/31 01:31:14;;;;;;;;;;;18.30;83.30;;;;;;5088445;28;19999;-83
2023/08/31 01:33:41;;;;;;;;;;;18.30;83.40;;;;;;5083231;28;20020;-83
2023/08/31 01:36:09;;;;;;;;;;;18.30;83.40;;;;;;5088137;28;20594;-82
2023/08/31 01:38:38;;;;;;;;;;;18.20;83.40;;;;;;5086950;28;20066;-82
2023/08/31 01:41:07;;;;;;;;;;;18.30;83.60;;;;;;5092963;28;20014;-82
2023/08/31 01:43:34;;;;;;;;;;;18.30;83.60;;;;;;5086052;28;19979;-83
2023/08/31 01:46:01;;;;;;;;;;;18.20;83.50;;;;;;5083348;28;20052;-83
2023/08/31 01:48:27;;;;;;;;;;;18.20;83.60;;;;;;5084695;28;19982;-83
2023/08/31 01:50:54;;;;;;;;;;;18.20;83.70;;;;;;5087365;28;20449;-82
2023/08/31 01:53:20;;;;;;;;;;;18.20;83.80;;;;;;5089034;28;19986;-82
2023/08/31 01:55:47;;;;;;;;;;;18.20;83.80;;;;;;5086964;27;19982;-83
2023/08/31 01:58:15;;;;;;;;;;;18.10;83.80;;;;;;5086991;28;19995;-83
2023/08/31 02:00:41;;;;;;;;;;;18.10;83.80;;;;;;5084111;28;20006;-84
2023/08/31 02:03:08;;;;;;;;;;;18.10;83.90;;;;;;5084918;28;19979;-83
2023/08/31 02:05:34;;;;;;;;;;;18.10;83.90;;;;;;5083022;28;20013;-84
2023/08/31 02:08:01;;;;;;;;;;;18.10;84.00;;;;;;5089144;28;19991;-83
2023/08/31 02:10:29;;;;;;;;;;;18.10;84.00;;;;;;5088558;28;20354;-84
2023/08/31 02:12:56;;;;;;;;;;;18.00;84.00;;;;;;5093116;28;19975;-84
2023/08/31 02:15:24;;;;;;;;;;;18.00;84.20;;;;;;5084410;28;19982;-83
2023/08/31 02:17:50;;;;;;;;;;;18.00;84.10;;;;;;5086450;28;19995;-84
2023/08/31 02:20:17;;;;;;;;;;;18.00;84.10;;;;;;5081800;28;19979;-83
2023/08/31 02:22:44;;;;;;;;;;;18.00;84.30;;;;;;5084875;28;20457;-83
2023/08/31 02:25:10;;;;;;;;;;;17.90;84.20;;;;;;5088108;28;19972;-82
2023/08/31 02:27:37;;;;;;;;;;;17.90;84.30;;;;;;5087061;28;20003;-84
2023/08/31 02:30:04;;;;;;;;;;;17.90;85.00;;;;;;5085971;28;19983;-83
2023/08/31 02:32:33;;;;;;;;;;;17.90;84.30;;;;;;5088459;28;20037;-83
2023/08/31 02:34:59;;;;;;;;;;;17.80;84.30;;;;;;5089580;28;19982;-83
2023/08/31 02:37:26;;;;;;;;;;;17.80;84.20;;;;;;5080783;28;19995;-83
2023/08/31 02:39:52;;;;;;;;;;;17.80;84.30;;;;;;5092079;28;20661;-83
2023/08/31 02:42:19;;;;;;;;;;;17.80;84.30;;;;;;5088562;27;20000;-82
2023/08/31 02:44:45;;;;;;;;;;;17.80;84.20;;;;;;5087333;28;19975;-78
2023/08/31 02:47:12;;;;;;;;;;;17.80;84.30;;;;;;5086562;28;20481;-83
2023/08/31 02:49:40;;;;;;;;;;;17.80;84.20;;;;;;5082087;28;19975;-83
2023/08/31 02:52:07;;;;;;;;;;;17.80;84.30;;;;;;5088843;28;19971;-83
2023/08/31 02:54:33;;;;;;;;;;;17.80;84.30;;;;;;5084314;28;19976;-83
2023/08/31 02:57:00;;;;;;;;;;;17.80;84.30;;;;;;5090390;28;20053;-83
2023/08/31 02:59:26;;;;;;;;;;;17.80;84.30;;;;;;5087021;28;19991;-83
2023/08/31 03:01:53;;;;;;;;;;;17.70;84.30;;;;;;5086031;28;19991;-80
2023/08/31 03:04:19;;;;;;;;;;;17.70;84.40;;;;;;5085047;28;19990;-83
2023/08/31 03:06:47;;;;;;;;;;;17.70;84.40;;;;;;5086929;28;19991;-84
2023/08/31 03:09:14;;;;;;;;;;;17.70;84.40;;;;;;5085679;28;20006;-83
2023/08/31 03:11:41;;;;;;;;;;;17.70;84.50;;;;;;5084186;28;20040;-83
2023/08/31 03:14:09;;;;;;;;;;;17.70;84.50;;;;;;5087844;28;20019;-83
2023/08/31 03:16:35;;;;;;;;;;;17.60;84.50;;;;;;5084752;28;20006;-83
2023/08/31 03:19:02;;;;;;;;;;;17.60;84.50;;;;;;5083166;28;20669;-83
2023/08/31 03:21:29;;;;;;;;;;;17.60;84.50;;;;;;5085814;28;20013;-83
2023/08/31 03:23:57;;;;;;;;;;;17.60;84.60;;;;;;5081637;28;19986;-87
2023/08/31 03:26:23;;;;;;;;;;;17.60;84.90;;;;;;5084927;28;19995;-84
2023/08/31 03:28:50;;;;;;;;;;;17.40;85.90;;;;;;5084472;28;20366;-84
2023/08/31 03:31:16;;;;;;;;;;;17.40;85.90;;;;;;5092867;28;19995;-85
2023/08/31 03:33:43;;;;;;;;;;;17.30;86.00;;;;;;5086661;28;19987;-87
2023/08/31 03:36:09;;;;;;;;;;;17.30;86.10;;;;;;5087656;28;20002;-84
2023/08/31 03:38:38;;;;;;;;;;;17.30;86.10;;;;;;5086412;28;20002;-84
2023/08/31 03:41:06;;;;;;;;;;;17.30;86.10;;;;;;5094246;28;19979;-85
2023/08/31 03:43:32;;;;;;;;;;;17.30;86.00;;;;;;5090993;28;19979;-85
2023/08/31 03:45:59;;;;;;;;;;;17.30;86.00;;;;;;5088481;28;20019;-83
2023/08/31 03:48:26;;;;;;;;;;;17.30;86.00;;;;;;5082144;28;20479;-82
2023/08/31 03:50:53;;;;;;;;;;;17.30;85.90;;;;;;5079838;28;19998;-86
2023/08/31 03:53:19;;;;;;;;;;;17.30;86.00;;;;;;5087411;28;19975;-85
2023/08/31 03:55:46;;;;;;;;;;;17.30;85.90;;;;;;5082716;28;19983;-85
2023/08/31 03:58:14;;;;;;;;;;;17.30;85.90;;;;;;5082965;28;20416;-84
2023/08/31 04:00:41;;;;;;;;;;;17.30;86.00;;;;;;5085593;28;20567;-86
2023/08/31 04:03:08;;;;;;;;;;;17.20;85.90;;;;;;5087221;28;20342;-85
2023/08/31 04:05:35;;;;;;;;;;;17.20;85.90;;;;;;5090147;28;19986;-86
2023/08/31 04:08:03;;;;;;;;;;;17.20;86.00;;;;;;5092633;28;19997;-86
2023/08/31 04:10:31;;;;;;;;;;;17.20;86.00;;;;;;5096570;28;20001;-84
2023/08/31 04:12:58;;;;;;;;;;;17.20;86.00;;;;;;5102232;28;20054;-84
2023/08/31 04:15:26;;;;;;;;;;;17.20;86.00;;;;;;5102081;28;19975;-86
2023/08/31 04:17:52;;;;;;;;;;;17.10;86.00;;;;;;5099686;28;19987;-85
2023/08/31 04:20:19;;;;;;;;;;;17.10;86.00;;;;;;5107160;28;19979;-83
2023/08/31 04:22:45;;;;;;;;;;;17.20;86.10;;;;;;5101683;28;19982;-86
2023/08/31 04:25:12;;;;;;;;;;;17.10;86.10;;;;;;5100968;28;19990;-87
2023/08/31 04:27:39;;;;;;;;;;;17.10;86.10;;;;;;5099004;28;19997;-80
2023/08/31 04:30:07;;;;;;;;;;;17.10;86.20;;;;;;5098129;28;19983;-81
2023/08/31 04:32:36;;;;;;;;;;;17.10;86.30;;;;;;5101570;28;20026;-84
2023/08/31 04:35:03;;;;;;;;;;;17.00;86.20;;;;;;5099709;28;19986;-80
2023/08/31 04:37:30;;;;;;;;;;;17.10;86.30;;;;;;5084582;28;20563;-82
2023/08/31 04:39:57;;;;;;;;;;;17.00;86.30;;;;;;5078184;28;19995;-81
2023/08/31 04:42:24;;;;;;;;;;;17.00;86.30;;;;;;5083924;28;19975;-81
2023/08/31 04:44:51;;;;;;;;;;;17.00;86.40;;;;;;5089985;28;20483;-82
2023/08/31 04:47:17;;;;;;;;;;;17.00;86.40;;;;;;5087880;28;20044;-84
2023/08/31 04:49:45;;;;;;;;;;;17.00;86.40;;;;;;5089534;28;20036;-82
2023/08/31 04:52:12;;;;;;;;;;;17.00;86.40;;;;;;5082271;28;19983;-80
2023/08/31 04:54:38;;;;;;;;;;;17.00;86.50;;;;;;5083770;28;20420;-82
2023/08/31 04:57:07;;;;;;;;;;;16.90;86.40;;;;;;5084694;28;20662;-84
2023/08/31 04:59:33;;;;;;;;;;;16.90;86.50;;;;;;5085451;28;20010;-82
2023/08/31 05:02:00;;;;;;;;;;;16.90;86.50;;;;;;5081941;28;19991;-85
2023/08/31 05:04:28;;;;;;;;;;;16.90;86.60;;;;;;5084733;28;20399;-84
2023/08/31 05:06:56;;;;;;;;;;;16.90;86.60;;;;;;5090504;28;19990;-82
2023/08/31 05:09:24;;;;;;;;;;;16.90;86.60;;;;;;5091494;28;19975;-83
2023/08/31 05:11:50;;;;;;;;;;;16.90;86.60;;;;;;5086202;28;19984;-82
2023/08/31 05:14:17;;;;;;;;;;;16.90;86.60;;;;;;5088139;28;20032;-83
2023/08/31 05:16:43;;;;;;;;;;;16.80;86.60;;;;;;5082041;28;20374;-83
2023/08/31 05:19:10;;;;;;;;;;;16.90;86.70;;;;;;5088823;28;19991;-83
2023/08/31 05:21:37;;;;;;;;;;;16.80;86.60;;;;;;5091342;28;19979;-83
2023/08/31 05:24:05;;;;;;;;;;;16.80;86.60;;;;;;5080757;28;19991;-83
2023/08/31 05:26:31;;;;;;;;;;;16.80;86.60;;;;;;5087783;28;19991;-82
2023/08/31 05:28:58;;;;;;;;;;;16.80;86.70;;;;;;5084907;28;19975;-82
2023/08/31 05:31:25;;;;;;;;;;;16.80;86.80;;;;;;5085118;28;20078;-83
2023/08/31 05:33:52;;;;;;;;;;;16.80;86.80;;;;;;5080387;28;19979;-83
2023/08/31 05:36:18;;;;;;;;;;;16.70;86.70;;;;;;5084063;28;20018;-84
2023/08/31 05:38:45;;;;;;;;;;;16.80;86.90;;;;;;5084644;28;19991;-81
2023/08/31 05:41:13;;;;;;;;;;;16.70;86.80;;;;;;5079180;28;19979;-74
2023/08/31 05:43:40;;;;;;;;;;;16.70;86.90;;;;;;5076254;28;19975;-74
2023/08/31 05:46:07;;;;;;;;;;;16.70;86.90;;;;;;5077263;28;20093;-72
2023/08/31 05:48:33;;;;;;;;;;;16.80;87.10;;;;;;5077250;28;20018;-74
2023/08/31 05:51:00;;;;;;;;;;;16.70;87.00;;;;;;5083252;28;19975;-74
2023/08/31 05:53:27;;;;;;;;;;;16.70;87.00;;;;;;5081015;28;19994;-73
2023/08/31 05:55:55;;;;;;;;;;;16.70;87.00;;;;;;5091490;28;20027;-74
2023/08/31 05:58:23;;;;;;;;;;;16.70;87.10;;;;;;5082148;28;20533;-73
2023/08/31 06:00:50;;;;;;;;;;;16.70;87.00;;;;;;5082004;28;19995;-73
2023/08/31 06:03:16;;;;;;;;;;;16.70;87.00;;;;;;5080131;28;19980;-73
2023/08/31 06:05:43;;;;;;;;;;;16.70;87.00;;;;;;5079350;28;20066;-72
2023/08/31 06:08:09;;;;;;;;;;;16.60;86.90;;;;;;5081820;28;19995;-73
2023/08/31 06:10:36;;;;;;;;;;;16.70;87.00;;;;;;5092466;28;20840;-84
2023/08/31 06:13:02;;;;;;;;;;;16.70;87.00;;;;;;5091742;28;20799;-85
2023/08/31 06:15:30;;;;;;;;;;;16.70;87.00;;;;;;5089611;28;20030;-86
2023/08/31 06:17:57;;;;;;;;;;;16.70;87.00;;;;;;5087928;28;19997;-84
2023/08/31 06:20:23;;;;;;;;;;;16.70;86.90;;;;;;5092963;23;20554;-78
2023/08/31 06:22:50;;;;;;;;;;;16.70;86.90;;;;;;5058035;28;20001;-77
2023/08/31 06:25:18;;;;;;;;;;;16.60;86.90;;;;;;5047688;28;19983;-77
2023/08/31 06:27:45;;;;;;;;;;;16.70;86.90;;;;;;5055426;28;20381;-77
2023/08/31 06:30:15;;;;;;;;;;;16.60;86.90;;;;;;5061004;28;20002;-78
2023/08/31 06:32:44;;;;;;;;;;;16.60;86.90;;;;;;5055055;28;20532;-77
2023/08/31 06:35:11;;;;;;;;;;;16.60;86.90;;;;;;5059328;28;20094;-77
2023/08/31 06:37:37;;;;;;;;;;;16.60;86.90;;;;;;5055990;28;20019;-78
2023/08/31 06:40:04;;;;;;;;;;;16.60;87.00;;;;;;5053547;28;20550;-78
2023/08/31 06:42:31;;;;;;;;;;;16.50;87.00;;;;;;5059178;28;20025;-78
2023/08/31 06:44:57;;;;;;;;;;;16.60;87.00;;;;;;5056155;28;19980;-78
2023/08/31 06:47:24;;;;;;;;;;;16.60;87.00;;;;;;5056765;28;19995;-77
2023/08/31 06:49:52;;;;;;;;;;;16.60;87.00;;;;;;5059703;28;20028;-78
2023/08/31 06:52:19;;;;;;;;;;;16.60;86.90;;;;;;5056811;28;19991;-78
2023/08/31 06:54:45;;;;;;;;;;;16.60;86.90;;;;;;5058843;28;19990;-78
2023/08/31 06:57:12;;;;;;;;;;;16.60;86.90;;;;;;5055201;28;19976;-77
2023/08/31 06:59:38;;;;;;;;;;;16.50;86.90;;;;;;5056567;28;19995;-77
2023/08/31 07:02:05;;;;;;;;;;;16.60;86.80;;;;;;5055175;28;20002;-77
2023/08/31 07:04:32;;;;;;;;;;;16.60;86.90;;;;;;5058835;28;20386;-78
2023/08/31 07:07:00;;;;;;;;;;;16.60;86.80;;;;;;5054336;28;19982;-77
2023/08/31 07:09:27;;;;;;;;;;;16.50;86.70;;;;;;5054220;28;19975;-77
2023/08/31 07:11:54;;;;;;;;;;;16.50;86.70;;;;;;5053921;28;19987;-78
2023/08/31 07:14:20;;;;;;;;;;;16.60;86.70;;;;;;5058334;28;20425;-78
2023/08/31 07:16:47;;;;;;;;;;;16.60;86.60;;;;;;5058872;28;19995;-78
2023/08/31 07:19:13;;;;;;;;;;;16.50;86.50;;;;;;5059059;28;20026;-78
2023/08/31 07:21:40;;;;;;;;;;;16.50;86.50;;;;;;5057379;28;19995;-78
2023/08/31 07:24:08;;;;;;;;;;;16.60;86.60;;;;;;5060408;28;20405;-77
2023/08/31 07:26:35;;;;;;;;;;;16.50;86.50;;;;;;5054925;28;19980;-78
2023/08/31 07:29:04;;;;;;;;;;;16.60;86.60;;;;;;5055520;28;20032;-77
2023/08/31 07:31:30;;;;;;;;;;;16.50;86.30;;;;;;5055225;28;20471;-78
2023/08/31 07:33:57;;;;;;;;;;;16.60;86.30;;;;;;5055070;28;19975;-78
2023/08/31 07:36:23;;;;;;;;;;;16.50;86.10;;;;;;5054744;28;19983;-78
2023/08/31 07:38:50;;;;;;;;;;;16.50;86.10;;;;;;5054908;28;19975;-78
2023/08/31 07:41:18;;;;;;;;;;;16.60;86.00;;;;;;5057119;28;19991;-78
2023/08/31 07:43:44;;;;;;;;;;;16.60;86.00;;;;;;5054005;28;19987;-78
2023/08/31 07:46:11;;;;;;;;;;;16.60;85.90;;;;;;5055820;28;20000;-78
2023/08/31 07:48:38;;;;;;;;;;;16.60;85.80;;;;;;5053440;28;20641;-76
2023/08/31 07:51:04;;;;;;;;;;;16.60;85.80;;;;;;5052011;28;20003;-77
2023/08/31 07:53:31;;;;;;;;;;;16.60;85.70;;;;;;5055010;28;20053;-77
2023/08/31 07:55:58;;;;;;;;;;;16.70;85.80;;;;;;5047485;28;19975;-76
2023/08/31 07:58:26;;;;;;;;;;;16.60;85.60;;;;;;5054334;28;20410;-75
2023/08/31 08:00:53;;;;;;;;;;;16.70;85.50;;;;;;5045584;28;20000;-80
2023/08/31 08:03:20;;;;;;;;;;;16.70;85.50;;;;;;5058019;28;19983;-77
2023/08/31 08:05:47;;;;;;;;;;;16.70;85.40;;;;;;5055963;28;20964;-76
2023/08/31 08:08:14;;;;;;;;;;;16.70;85.10;;;;;;5053612;28;19979;-76
2023/08/31 08:10:40;;;;;;;;;;;16.70;85.00;;;;;;5053183;28;20656;-75
2023/08/31 08:13:07;;;;;;;;;;;16.70;84.80;;;;;;5058173;28;20463;-77
2023/08/31 08:15:36;;;;;;;;;;;16.70;84.60;;;;;;5057170;28;20031;-77
2023/08/31 08:18:02;;;;;;;;;;;16.80;84.50;;;;;;5060045;28;19998;-75
2023/08/31 08:20:29;;;;;;;;;;;16.80;84.30;;;;;;5058612;28;20030;-76
2023/08/31 08:22:57;;;;;;;;;;;16.80;84.10;;;;;;5054437;28;20389;-77
2023/08/31 08:25:24;;;;;;;;;;;16.80;83.90;;;;;;5054307;28;19979;-75
2023/08/31 08:27:51;;;;;;;;;;;16.80;83.90;;;;;;5053706;28;20133;-76
2023/08/31 08:30:20;;;;;;;;;;;16.90;83.70;;;;;;5055871;28;20000;-79
2023/08/31 08:32:48;;;;;;;;;;;16.90;83.60;;;;;;5057483;28;21428;-78
2023/08/31 08:35:14;;;;;;;;;;;16.90;83.50;;;;;;5058146;28;19983;-77
2023/08/31 08:37:41;;;;;;;;;;;16.90;83.40;;;;;;5059367;28;19971;-79
2023/08/31 08:40:08;;;;;;;;;;;17.00;83.30;;;;;;5057802;28;20132;-78
2023/08/31 08:42:41;;;;;;;;;;;17.00;83.10;;;;;;5058316;28;19980;-77
2023/08/31 08:45:08;;;;;;;;;;;17.00;82.90;;;;;;5054315;28;19980;-77
2023/08/31 08:47:35;;;;;;;;;;;17.00;82.80;;;;;;5057351;28;20283;-77
2023/08/31 08:50:03;;;;;;;;;;;17.10;82.30;;;;;;5059445;28;19995;-77
2023/08/31 08:52:30;;;;;;;;;;;17.10;82.00;;;;;;5053276;28;20442;-76
2023/08/31 08:54:57;;;;;;;;;;;17.10;81.80;;;;;;5054770;28;19979;-77
2023/08/31 08:57:24;;;;;;;;;;;17.20;81.50;;;;;;5059005;28;19975;-77
2023/08/31 08:59:50;;;;;;;;;;;17.20;81.30;;;;;;5059807;28;19999;-76
2023/08/31 09:02:17;;;;;;;;;;;17.20;81.20;;;;;;5052985;28;20482;-75
2023/08/31 09:04:43;;;;;;;;;;;17.20;81.00;;;;;;5059095;28;19994;-76
2023/08/31 09:07:13;;;;;;;;;;;17.30;80.90;;;;;;5054753;28;19983;-76
2023/08/31 09:09:49;;;;;;;;;;;17.30;80.60;;;;;;5059131;28;19986;-76
2023/08/31 09:12:16;;;;;;;;;;;17.30;80.10;;;;;;5057776;28;19986;-75
2023/08/31 09:14:43;;;;;;;;;;;17.40;79.80;;;;;;5055774;28;19995;-76
2023/08/31 09:17:09;;;;;;;;;;;17.40;79.50;;;;;;5057260;28;19991;-76
2023/08/31 09:19:36;;;;;;;;;;;17.50;79.20;;;;;;5053667;28;20002;-75
2023/08/31 09:22:02;;;;;;;;;;;17.60;78.90;;;;;;5057321;28;20038;-75
2023/08/31 09:24:40;;;;;;;;;;;17.60;78.60;;;;;;5056769;28;20025;-75
2023/08/31 09:27:08;;;;;;;;;;;17.70;78.30;;;;;;5057718;28;19979;-76
2023/08/31 09:29:34;;;;;;;;;;;17.70;78.20;;;;;;5056987;28;20571;-76
2023/08/31 09:32:01;;;;;;;;;;;17.80;77.70;;;;;;5056981;28;20472;-77
2023/08/31 09:34:33;;;;;;;;;;;17.90;77.60;;;;;;5051771;28;20197;-75
2023/08/31 09:37:04;;;;;;;;;;;17.90;77.20;;;;;;5058386;28;20339;-76
2023/08/31 09:39:36;;;;;;;;;;;18.00;77.20;;;;;;5055703;28;19986;-73
2023/08/31 09:42:04;;;;;;;;;;;18.10;77.20;;;;;;5053558;28;19986;-74
2023/08/31 09:44:30;;;;;;;;;;;18.10;76.80;;;;;;5057000;28;19979;-75
2023/08/31 09:46:57;;;;;;;;;;;18.20;76.80;;;;;;5058155;28;20386;-77
2023/08/31 09:49:25;;;;;;;;;;;18.20;76.60;;;;;;5059109;28;20438;-77
2023/08/31 09:51:52;;;;;;;;;;;18.20;76.10;;;;;;5058975;28;19978;-73
2023/08/31 09:54:21;;;;;;;;;;;18.30;75.70;;;;;;5059306;28;19982;-76
2023/08/31 09:56:49;;;;;;;;;;;18.40;75.60;;;;;;5056873;28;19990;-76
2023/08/31 09:59:16;;;;;;;;;;;18.40;74.70;;;;;;5057008;28;20057;-75
2023/08/31 10:01:45;;;;;;;;;;;18.50;74.40;;;;;;5057583;28;20578;-75
2023/08/31 10:04:12;;;;;;;;;;;18.50;73.80;;;;;;5058121;28;19975;-76
2023/08/31 10:06:39;;;;;;;;;;;18.60;72.80;;;;;;5054013;28;20029;-76
2023/08/31 10:09:06;;;;;;;;;;;18.70;72.60;;;;;;5055251;28;21181;-76
2023/08/31 10:11:33;;;;;;;;;;;18.70;72.50;;;;;;5057282;28;19996;-78
2023/08/31 10:14:01;;;;;;;;;;;18.80;72.40;;;;;;5057200;28;19975;-77
2023/08/31 10:16:28;;;;;;;;;;;18.80;72.50;;;;;;5058108;28;19991;-75
2023/08/31 10:18:56;;;;;;;;;;;18.90;71.80;;;;;;5057964;28;21781;-76
2023/08/31 10:21:23;;;;;;;;;;;19.00;72.00;;;;;;5056726;28;19995;-76
2023/08/31 10:23:50;;;;;;;;;;;19.00;71.90;;;;;;5057647;28;19975;-76
2023/08/31 10:26:24;;;;;;;;;;;19.00;71.40;;;;;;5056535;28;19983;-75
2023/08/31 10:28:51;;;;;;;;;;;19.10;71.20;;;;;;5051990;28;19982;-75
2023/08/31 10:31:19;;;;;;;;;;;19.10;71.40;;;;;;5057276;28;20027;-76
2023/08/31 10:33:47;;;;;;;;;;;19.10;71.00;;;;;;5053497;28;19986;-74
2023/08/31 10:36:20;;;;;;;;;;;19.10;70.70;;;;;;5056368;28;19976;-75
2023/08/31 10:38:47;;;;;;;;;;;19.10;70.90;;;;;;5056312;28;20074;-75
2023/08/31 10:41:21;;;;;;;;;;;19.20;71.20;;;;;;5051380;28;20117;-76
2023/08/31 10:43:49;;;;;;;;;;;19.20;70.60;;;;;;5051390;28;19979;-76
2023/08/31 10:46:25;;;;;;;;;;;19.20;70.40;;;;;;5055330;28;20104;-76
2023/08/31 10:48:52;;;;;;;;;;;19.20;70.10;;;;;;5056958;28;20676;-75
2023/08/31 10:51:20;;;;;;;;;;;19.20;70.60;;;;;;5053548;28;19991;-75
2023/08/31 10:53:46;;;;;;;;;;;19.20;70.00;;;;;;5055984;28;20687;-76
2023/08/31 10:56:13;;;;;;;;;;;19.20;70.30;;;;;;5051050;28;19983;-76
2023/08/31 10:58:40;;;;;;;;;;;19.20;70.30;;;;;;5053958;28;20075;-75
2023/08/31 11:01:06;;;;;;;;;;;19.20;70.30;;;;;;5055760;28;20007;-77
2023/08/31 11:03:54;;;;;;;;;;;19.20;70.20;;;;;;5058636;28;19980;-76
2023/08/31 11:06:21;;;;;;;;;;;19.20;70.50;;;;;;5056707;28;19982;-76
2023/08/31 11:08:48;;;;;;;;;;;19.10;70.90;;;;;;5059034;28;19986;-76
2023/08/31 11:11:20;;;;;;;;;;;19.20;71.10;;;;;;5049543;28;20007;-76
2023/08/31 11:13:47;;;;;;;;;;;19.10;70.60;;;;;;5052693;28;19975;-76
2023/08/31 11:16:14;;;;;;;;;;;19.20;70.80;;;;;;5055093;28;19995;-76
2023/08/31 11:18:43;;;;;;;;;;;19.10;70.70;;;;;;5058317;28;20072;-76
2023/08/31 11:21:09;;;;;;;;;;;19.10;70.80;;;;;;5054173;28;20068;-76
2023/08/31 11:23:36;;;;;;;;;;;19.10;70.80;;;;;;5056617;28;19975;-75
2023/08/31 11:26:03;;;;;;;;;;;19.10;70.60;;;;;;5055102;28;19987;-76
2023/08/31 11:28:33;;;;;;;;;;;19.10;70.50;;;;;;5054354;28;20095;-74
2023/08/31 11:31:00;;;;;;;;;;;19.10;70.40;;;;;;5050805;28;20006;-74
2023/08/31 11:33:36;;;;;;;;;;;19.20;69.80;;;;;;5052655;28;19986;-75
2023/08/31 11:36:04;;;;;;;;;;;19.20;69.70;;;;;;5053846;28;19979;-74
2023/08/31 11:38:30;;;;;;;;;;;19.30;69.30;;;;;;5052770;28;19975;-73
2023/08/31 11:40:57;;;;;;;;;;;19.20;69.40;;;;;;5056243;28;20014;-71
2023/08/31 11:43:24;;;;;;;;;;;19.30;68.90;;;;;;5055573;28;19986;-73
2023/08/31 11:45:51;;;;;;;;;;;19.30;69.30;;;;;;5053433;28;19991;-73
2023/08/31 11:48:18;;;;;;;;;;;19.30;69.00;;;;;;5057128;28;20482;-75
2023/08/31 11:50:44;;;;;;;;;;;19.40;68.70;;;;;;5052888;28;20090;-72
2023/08/31 11:53:13;;;;;;;;;;;19.40;68.60;;;;;;5056330;28;19982;-72
2023/08/31 11:55:50;;;;;;;;;;;19.40;68.40;;;;;;5056464;28;20014;-74
2023/08/31 11:58:16;;;;;;;;;;;19.50;68.40;;;;;;5052791;28;19983;-75
2023/08/31 12:00:43;;;;;;;;;;;19.50;68.50;;;;;;5053516;28;19999;-74
2023/08/31 12:03:10;;;;;;;;;;;19.50;68.30;;;;;;5057591;28;19983;-77
2023/08/31 12:05:46;;;;;;;;;;;19.60;68.70;;;;;;5055259;28;19993;-75
2023/08/31 12:08:14;;;;;;;;;;;19.60;69.20;;;;;;5057292;28;20082;-74
2023/08/31 12:10:41;;;;;;;;;;;19.60;68.80;;;;;;5060871;28;19991;-74
2023/08/31 12:13:11;;;;;;;;;;;19.60;69.20;;;;;;5056635;28;20040;-76
2023/08/31 12:15:37;;;;;;;;;;;19.60;68.70;;;;;;5057061;28;20045;-75
2023/08/31 12:18:07;;;;;;;;;;;19.70;68.80;;;;;;5060632;28;19984;-75
2023/08/31 12:20:40;;;;;;;;;;;19.70;68.90;;;;;;5061075;28;20006;-74
2023/08/31 12:23:09;;;;;;;;;;;19.70;68.60;;;;;;5056824;28;20045;-75
2023/08/31 12:25:38;;;;;;;;;;;19.70;68.40;;;;;;5060928;28;19975;-75
2023/08/31 12:28:04;;;;;;;;;;;19.70;68.40;;;;;;5058985;28;19989;-74
2023/08/31 12:30:31;;;;;;;;;;;19.80;69.00;;;;;;5059569;28;20385;-74
2023/08/31 12:32:58;;;;;;;;;;;19.80;66.50;;;;;;5058341;28;19976;-72
2023/08/31 12:35:24;;;;;;;;;;;20.00;66.40;;;;;;5057793;28;19975;-73
2023/08/31 12:37:51;;;;;;;;;;;20.10;66.50;;;;;;5058004;28;19983;-72
2023/08/31 12:40:19;;;;;;;;;;;20.20;66.20;;;;;;5058321;28;19999;-73
2023/08/31 12:42:47;;;;;;;;;;;20.30;65.80;;;;;;5057240;28;20081;-74
2023/08/31 12:45:14;;;;;;;;;;;20.40;65.80;;;;;;5057135;28;20339;-74
2023/08/31 12:47:40;;;;;;;;;;;20.50;66.00;;;;;;5062995;28;19975;-72
2023/08/31 12:50:07;;;;;;;;;;;20.50;66.20;;;;;;5055939;28;20004;-73
2023/08/31 12:52:34;;;;;;;;;;;20.60;66.10;;;;;;5064298;28;20757;-73
2023/08/31 12:55:00;;;;;;;;;;;20.70;66.30;;;;;;5058763;28;20455;-72
2023/08/31 12:57:27;;;;;;;;;;;20.70;66.40;;;;;;5046823;28;19988;-73
2023/08/31 12:59:55;;;;;;;;;;;20.80;65.80;;;;;;5053666;28;19998;-73
2023/08/31 13:02:21;;;;;;;;;;;20.90;65.70;;;;;;5059369;28;20002;-71
2023/08/31 13:04:48;;;;;;;;;;;20.90;65.80;;;;;;5054753;28;19983;-73
2023/08/31 13:07:14;;;;;;;;;;;21.00;65.90;;;;;;5057008;28;19986;-74
2023/08/31 13:09:41;;;;;;;;;;;21.00;65.90;;;;;;5058567;28;19978;-73
2023/08/31 13:12:08;;;;;;;;;;;21.10;65.70;;;;;;5056681;28;19979;-70
2023/08/31 13:14:34;;;;;;;;;;;21.10;65.50;;;;;;5057937;28;19975;-74
2023/08/31 13:17:02;;;;;;;;;;;21.20;65.60;;;;;;5058826;28;19999;-71
2023/08/31 13:19:29;;;;;;;;;;;21.20;65.70;;;;;;5059391;28;20070;-73
2023/08/31 13:21:56;;;;;;;;;;;21.10;65.60;;;;;;5054976;28;20638;-73
2023/08/31 13:24:22;;;;;;;;;;;21.20;65.80;;;;;;5056813;28;19975;-71
2023/08/31 13:26:49;;;;;;;;;;;21.10;65.90;;;;;;5059259;28;20182;-73
2023/08/31 13:29:16;;;;;;;;;;;21.20;66.30;;;;;;5055947;28;19979;-73
2023/08/31 13:31:43;;;;;;;;;;;21.20;66.40;;;;;;5058965;28;19998;-72
2023/08/31 13:34:11;;;;;;;;;;;21.20;66.10;;;;;;5056726;28;19975;-72
2023/08/31 13:36:38;;;;;;;;;;;21.30;66.00;;;;;;5061758;28;19986;-77
2023/08/31 13:39:04;;;;;;;;;;;21.30;65.90;;;;;;5054989;28;19979;-73
2023/08/31 13:41:31;;;;;;;;;;;21.30;65.80;;;;;;5056561;28;20011;-74
2023/08/31 13:43:57;;;;;;;;;;;21.40;65.90;;;;;;5057994;28;20015;-77
2023/08/31 13:46:24;;;;;;;;;;;21.40;65.50;;;;;;5054888;28;20540;-75
2023/08/31 13:48:51;;;;;;;;;;;21.40;65.20;;;;;;5055634;28;20800;-75
2023/08/31 13:51:18;;;;;;;;;;;21.40;65.10;;;;;;5055236;28;19999;-75
2023/08/31 13:53:46;;;;;;;;;;;21.40;65.00;;;;;;5052188;28;19984;-76
2023/08/31 13:56:13;;;;;;;;;;;21.40;65.00;;;;;;5055828;28;19982;-76
2023/08/31 13:58:40;;;;;;;;;;;21.50;65.00;;;;;;5057004;28;19979;-76
2023/08/31 14:01:07;;;;;;;;;;;21.50;64.90;;;;;;5057472;28;20021;-75
2023/08/31 14:03:34;;;;;;;;;;;21.60;63.90;;;;;;5057456;28;19978;-77
2023/08/31 14:06:00;;;;;;;;;;;21.60;63.60;;;;;;5051726;28;19979;-75
2023/08/31 14:08:28;;;;;;;;;;;21.60;63.80;;;;;;5055013;28;20005;-76
2023/08/31 14:10:55;;;;;;;;;;;21.60;63.80;;;;;;5049446;28;20588;-77
2023/08/31 14:13:22;;;;;;;;;;;21.70;63.60;;;;;;5055745;28;19976;-76
2023/08/31 14:15:48;;;;;;;;;;;21.60;63.50;;;;;;5053996;28;19995;-77
2023/08/31 14:18:15;;;;;;;;;;;21.70;63.70;;;;;;5059887;28;19975;-75